sensor_id;sensor_type;location;lat;lon;timestamp;P1;durP1;ratioP1;P2;durP2;ratioP2
43606;SDS011;29197;44.788;10.366;2022-07-24T00:01:25;7.40;;;4.22;;
43606;SDS011;29197;44.788;10.366;2022-07-24T00:04:14;5.18;;;3.75;;
43606;SDS011;29197;44.788;10.366;2022-07-24T00:07:04;9.20;;;4.30;;
43606;SDS011;29197;44.788;10.366;2022-07-24T00:09:53;6.50;;;4.00;;
43606;SDS011;29197;44.788;10.366;2022-07-24T00:12:42;6.03;;;3.80;;
43606;SDS011;29197;44.788;10.366;2022-07-24T00:15:32;6.50;;;3.50;;
43606;SDS011;29197;44.788;10.366;2022-07-24T00:18:23;4.75;;;3.35;;
43606;SDS011;29197;44.788;10.366;2022-07-24T00:21:12;8.10;;;3.88;;
43606;SDS011;29197;44.788;10.366;2022-07-24T00:24:02;3.78;;;3.42;;
43606;SDS011;29197;44.788;10.366;2022-07-24T00:26:52;6.22;;;3.65;;
43606;SDS011;29197;44.788;10.366;2022-07-24T00:29:42;5.65;;;3.55;;
43606;SDS011;29197;44.788;10.366;2022-07-24T00:32:31;4.95;;;3.63;;
43606;SDS011;29197;44.788;10.366;2022-07-24T00:35:22;7.30;;;3.40;;
43606;SDS011;29197;44.788;10.366;2022-07-24T00:38:11;4.75;;;3.10;;
43606;SDS011;29197;44.788;10.366;2022-07-24T00:41:01;7.18;;;3.83;;
43606;SDS011;29197;44.788;10.366;2022-07-24T00:44:00;5.15;;;3.53;;
43606;SDS011;29197;44.788;10.366;2022-07-24T00:46:50;4.25;;;3.40;;
43606;SDS011;29197;44.788;10.366;2022-07-24T00:49:39;6.53;;;3.58;;
43606;SDS011;29197;44.788;10.366;2022-07-24T00:52:31;9.52;;;4.25;;
43606;SDS011;29197;44.788;10.366;2022-07-24T00:55:20;6.13;;;3.50;;
43606;SDS011;29197;44.788;10.366;2022-07-24T00:58:09;6.13;;;3.65;;
43606;SDS011;29197;44.788;10.366;2022-07-24T01:01:00;5.30;;;3.47;;
43606;SDS011;29197;44.788;10.366;2022-07-24T01:03:49;7.28;;;4.00;;
43606;SDS011;29197;44.788;10.366;2022-07-24T01:06:39;4.05;;;3.60;;
43606;SDS011;29197;44.788;10.366;2022-07-24T01:09:30;6.00;;;3.35;;
43606;SDS011;29197;44.788;10.366;2022-07-24T01:12:20;6.20;;;4.05;;
43606;SDS011;29197;44.788;10.366;2022-07-24T01:15:10;4.93;;;3.47;;
43606;SDS011;29197;44.788;10.366;2022-07-24T01:18:01;6.18;;;4.13;;
43606;SDS011;29197;44.788;10.366;2022-07-24T01:20:52;6.85;;;4.88;;
43606;SDS011;29197;44.788;10.366;2022-07-24T01:23:42;6.40;;;4.03;;
43606;SDS011;29197;44.788;10.366;2022-07-24T01:26:32;5.82;;;3.95;;
43606;SDS011;29197;44.788;10.366;2022-07-24T01:29:21;6.20;;;4.10;;
43606;SDS011;29197;44.788;10.366;2022-07-24T01:32:11;6.25;;;3.58;;
43606;SDS011;29197;44.788;10.366;2022-07-24T01:35:00;5.05;;;3.30;;
43606;SDS011;29197;44.788;10.366;2022-07-24T01:37:51;7.07;;;4.50;;
43606;SDS011;29197;44.788;10.366;2022-07-24T01:40:41;5.75;;;3.70;;
43606;SDS011;29197;44.788;10.366;2022-07-24T01:43:31;7.40;;;4.53;;
43606;SDS011;29197;44.788;10.366;2022-07-24T01:46:20;4.68;;;4.18;;
43606;SDS011;29197;44.788;10.366;2022-07-24T01:49:10;6.32;;;4.47;;
43606;SDS011;29197;44.788;10.366;2022-07-24T01:52:00;6.47;;;4.38;;
43606;SDS011;29197;44.788;10.366;2022-07-24T01:54:52;5.43;;;4.00;;
43606;SDS011;29197;44.788;10.366;2022-07-24T01:57:41;5.50;;;3.92;;
43606;SDS011;29197;44.788;10.366;2022-07-24T02:00:31;6.05;;;4.70;;
43606;SDS011;29197;44.788;10.366;2022-07-24T02:03:21;7.85;;;4.75;;
43606;SDS011;29197;44.788;10.366;2022-07-24T02:06:10;6.30;;;3.60;;
43606;SDS011;29197;44.788;10.366;2022-07-24T02:09:00;4.72;;;4.07;;
43606;SDS011;29197;44.788;10.366;2022-07-24T02:11:51;5.53;;;3.95;;
43606;SDS011;29197;44.788;10.366;2022-07-24T02:14:41;5.35;;;3.97;;
43606;SDS011;29197;44.788;10.366;2022-07-24T02:17:30;6.80;;;4.70;;
43606;SDS011;29197;44.788;10.366;2022-07-24T02:20:19;6.20;;;4.40;;
43606;SDS011;29197;44.788;10.366;2022-07-24T02:23:08;7.50;;;4.20;;
43606;SDS011;29197;44.788;10.366;2022-07-24T02:25:58;3.95;;;3.45;;
43606;SDS011;29197;44.788;10.366;2022-07-24T02:28:49;6.10;;;3.60;;
43606;SDS011;29197;44.788;10.366;2022-07-24T02:31:39;5.00;;;3.88;;
43606;SDS011;29197;44.788;10.366;2022-07-24T02:34:29;7.18;;;4.22;;
43606;SDS011;29197;44.788;10.366;2022-07-24T02:37:18;8.77;;;3.40;;
43606;SDS011;29197;44.788;10.366;2022-07-24T02:40:08;5.93;;;3.85;;
43606;SDS011;29197;44.788;10.366;2022-07-24T02:42:59;6.60;;;3.80;;
43606;SDS011;29197;44.788;10.366;2022-07-24T02:45:49;5.40;;;3.80;;
43606;SDS011;29197;44.788;10.366;2022-07-24T02:48:39;8.75;;;4.43;;
43606;SDS011;29197;44.788;10.366;2022-07-24T02:51:28;6.43;;;5.40;;
43606;SDS011;29197;44.788;10.366;2022-07-24T02:54:17;6.47;;;4.63;;
43606;SDS011;29197;44.788;10.366;2022-07-24T02:57:06;5.55;;;4.10;;
43606;SDS011;29197;44.788;10.366;2022-07-24T02:59:55;6.85;;;4.70;;
43606;SDS011;29197;44.788;10.366;2022-07-24T03:02:46;5.30;;;4.00;;
43606;SDS011;29197;44.788;10.366;2022-07-24T03:05:36;5.57;;;4.30;;
43606;SDS011;29197;44.788;10.366;2022-07-24T03:08:26;6.00;;;3.80;;
43606;SDS011;29197;44.788;10.366;2022-07-24T03:11:15;4.68;;;3.88;;
43606;SDS011;29197;44.788;10.366;2022-07-24T03:14:05;9.07;;;4.50;;
43606;SDS011;29197;44.788;10.366;2022-07-24T03:16:55;9.85;;;4.47;;
43606;SDS011;29197;44.788;10.366;2022-07-24T03:19:46;8.65;;;5.10;;
43606;SDS011;29197;44.788;10.366;2022-07-24T03:22:35;5.60;;;4.00;;
43606;SDS011;29197;44.788;10.366;2022-07-24T03:25:24;7.85;;;4.40;;
43606;SDS011;29197;44.788;10.366;2022-07-24T03:28:14;8.15;;;4.93;;
43606;SDS011;29197;44.788;10.366;2022-07-24T03:31:04;6.75;;;4.57;;
43606;SDS011;29197;44.788;10.366;2022-07-24T03:33:53;7.43;;;4.93;;
43606;SDS011;29197;44.788;10.366;2022-07-24T03:36:45;8.40;;;4.43;;
43606;SDS011;29197;44.788;10.366;2022-07-24T03:39:34;8.85;;;6.22;;
43606;SDS011;29197;44.788;10.366;2022-07-24T03:42:24;6.97;;;4.90;;
43606;SDS011;29197;44.788;10.366;2022-07-24T03:45:13;9.20;;;4.97;;
43606;SDS011;29197;44.788;10.366;2022-07-24T03:48:03;6.28;;;4.30;;
43606;SDS011;29197;44.788;10.366;2022-07-24T03:50:53;6.95;;;4.70;;
43606;SDS011;29197;44.788;10.366;2022-07-24T03:53:44;7.07;;;4.22;;
43606;SDS011;29197;44.788;10.366;2022-07-24T03:56:33;5.43;;;4.63;;
43606;SDS011;29197;44.788;10.366;2022-07-24T03:59:22;7.88;;;5.78;;
43606;SDS011;29197;44.788;10.366;2022-07-24T04:02:11;7.90;;;4.95;;
43606;SDS011;29197;44.788;10.366;2022-07-24T04:05:01;7.13;;;4.85;;
43606;SDS011;29197;44.788;10.366;2022-07-24T04:07:51;8.32;;;3.90;;
43606;SDS011;29197;44.788;10.366;2022-07-24T04:10:41;4.95;;;4.00;;
43606;SDS011;29197;44.788;10.366;2022-07-24T04:13:31;5.40;;;3.78;;
43606;SDS011;29197;44.788;10.366;2022-07-24T04:16:20;6.13;;;4.35;;
43606;SDS011;29197;44.788;10.366;2022-07-24T04:19:09;10.93;;;4.20;;
43606;SDS011;29197;44.788;10.366;2022-07-24T04:22:00;6.43;;;4.22;;
43606;SDS011;29197;44.788;10.366;2022-07-24T04:24:49;5.82;;;4.18;;
43606;SDS011;29197;44.788;10.366;2022-07-24T04:27:40;7.60;;;4.63;;
43606;SDS011;29197;44.788;10.366;2022-07-24T04:30:31;5.50;;;4.05;;
43606;SDS011;29197;44.788;10.366;2022-07-24T04:33:20;6.25;;;4.60;;
43606;SDS011;29197;44.788;10.366;2022-07-24T04:36:10;5.63;;;4.60;;
43606;SDS011;29197;44.788;10.366;2022-07-24T04:38:59;5.35;;;4.20;;
43606;SDS011;29197;44.788;10.366;2022-07-24T04:41:54;6.57;;;5.13;;
43606;SDS011;29197;44.788;10.366;2022-07-24T04:44:45;5.63;;;4.50;;
43606;SDS011;29197;44.788;10.366;2022-07-24T04:47:33;8.60;;;5.53;;
43606;SDS011;29197;44.788;10.366;2022-07-24T04:50:23;6.50;;;4.18;;
43606;SDS011;29197;44.788;10.366;2022-07-24T04:53:12;9.77;;;5.43;;
43606;SDS011;29197;44.788;10.366;2022-07-24T04:56:01;6.38;;;5.15;;
43606;SDS011;29197;44.788;10.366;2022-07-24T04:58:50;8.02;;;5.05;;
43606;SDS011;29197;44.788;10.366;2022-07-24T05:01:41;6.88;;;4.30;;
43606;SDS011;29197;44.788;10.366;2022-07-24T05:04:34;7.63;;;4.70;;
43606;SDS011;29197;44.788;10.366;2022-07-24T05:07:23;6.45;;;4.63;;
43606;SDS011;29197;44.788;10.366;2022-07-24T05:10:12;6.63;;;4.85;;
43606;SDS011;29197;44.788;10.366;2022-07-24T05:13:02;7.25;;;4.82;;
43606;SDS011;29197;44.788;10.366;2022-07-24T05:15:51;5.22;;;4.32;;
43606;SDS011;29197;44.788;10.366;2022-07-24T05:18:44;7.28;;;4.60;;
43606;SDS011;29197;44.788;10.366;2022-07-24T05:21:34;6.15;;;4.88;;
43606;SDS011;29197;44.788;10.366;2022-07-24T05:24:23;6.15;;;5.20;;
43606;SDS011;29197;44.788;10.366;2022-07-24T05:27:13;5.68;;;4.65;;
43606;SDS011;29197;44.788;10.366;2022-07-24T05:30:03;10.25;;;5.45;;
43606;SDS011;29197;44.788;10.366;2022-07-24T05:32:54;7.28;;;5.40;;
43606;SDS011;29197;44.788;10.366;2022-07-24T05:35:44;10.02;;;6.00;;
43606;SDS011;29197;44.788;10.366;2022-07-24T05:38:34;8.32;;;5.80;;
43606;SDS011;29197;44.788;10.366;2022-07-24T05:41:24;10.43;;;6.30;;
43606;SDS011;29197;44.788;10.366;2022-07-24T05:44:14;8.88;;;5.05;;
43606;SDS011;29197;44.788;10.366;2022-07-24T05:47:03;8.38;;;5.88;;
43606;SDS011;29197;44.788;10.366;2022-07-24T05:49:53;8.18;;;5.07;;
43606;SDS011;29197;44.788;10.366;2022-07-24T05:52:44;12.10;;;5.85;;
43606;SDS011;29197;44.788;10.366;2022-07-24T05:55:33;6.63;;;4.88;;
43606;SDS011;29197;44.788;10.366;2022-07-24T05:58:22;8.23;;;4.45;;
43606;SDS011;29197;44.788;10.366;2022-07-24T06:01:11;5.07;;;4.57;;
43606;SDS011;29197;44.788;10.366;2022-07-24T06:04:02;6.60;;;5.03;;
43606;SDS011;29197;44.788;10.366;2022-07-24T06:06:51;6.65;;;4.57;;
43606;SDS011;29197;44.788;10.366;2022-07-24T06:09:42;8.00;;;4.95;;
43606;SDS011;29197;44.788;10.366;2022-07-24T06:12:32;9.40;;;4.82;;
43606;SDS011;29197;44.788;10.366;2022-07-24T06:15:22;5.95;;;4.53;;
43606;SDS011;29197;44.788;10.366;2022-07-24T06:18:11;7.80;;;5.78;;
43606;SDS011;29197;44.788;10.366;2022-07-24T06:21:01;9.40;;;5.25;;
43606;SDS011;29197;44.788;10.366;2022-07-24T06:23:51;8.05;;;4.88;;
43606;SDS011;29197;44.788;10.366;2022-07-24T06:26:42;6.38;;;4.88;;
43606;SDS011;29197;44.788;10.366;2022-07-24T06:29:51;6.85;;;4.85;;
43606;SDS011;29197;44.788;10.366;2022-07-24T06:32:42;6.88;;;4.32;;
43606;SDS011;29197;44.788;10.366;2022-07-24T06:35:32;7.70;;;4.53;;
43606;SDS011;29197;44.788;10.366;2022-07-24T06:38:22;15.60;;;6.72;;
43606;SDS011;29197;44.788;10.366;2022-07-24T06:41:12;12.68;;;8.98;;
43606;SDS011;29197;44.788;10.366;2022-07-24T06:44:03;7.57;;;5.53;;
43606;SDS011;29197;44.788;10.366;2022-07-24T06:46:52;9.93;;;6.18;;
43606;SDS011;29197;44.788;10.366;2022-07-24T06:49:41;10.90;;;7.63;;
43606;SDS011;29197;44.788;10.366;2022-07-24T06:52:30;6.40;;;5.10;;
43606;SDS011;29197;44.788;10.366;2022-07-24T06:55:20;9.90;;;5.88;;
43606;SDS011;29197;44.788;10.366;2022-07-24T06:58:09;8.05;;;5.35;;
43606;SDS011;29197;44.788;10.366;2022-07-24T07:01:00;7.57;;;5.38;;
43606;SDS011;29197;44.788;10.366;2022-07-24T07:03:50;8.30;;;5.10;;
43606;SDS011;29197;44.788;10.366;2022-07-24T07:06:39;7.88;;;6.55;;
43606;SDS011;29197;44.788;10.366;2022-07-24T07:09:29;11.57;;;7.47;;
43606;SDS011;29197;44.788;10.366;2022-07-24T07:12:19;9.30;;;5.65;;
43606;SDS011;29197;44.788;10.366;2022-07-24T07:15:08;11.07;;;8.13;;
43606;SDS011;29197;44.788;10.366;2022-07-24T07:18:00;7.80;;;5.72;;
43606;SDS011;29197;44.788;10.366;2022-07-24T07:20:49;8.38;;;4.85;;
43606;SDS011;29197;44.788;10.366;2022-07-24T07:23:40;7.78;;;5.32;;
43606;SDS011;29197;44.788;10.366;2022-07-24T07:26:35;7.30;;;5.80;;
43606;SDS011;29197;44.788;10.366;2022-07-24T07:29:25;8.88;;;6.28;;
43606;SDS011;29197;44.788;10.366;2022-07-24T07:32:16;6.70;;;5.30;;
43606;SDS011;29197;44.788;10.366;2022-07-24T07:35:07;9.05;;;6.97;;
43606;SDS011;29197;44.788;10.366;2022-07-24T07:38:07;9.35;;;6.53;;
43606;SDS011;29197;44.788;10.366;2022-07-24T07:40:56;9.40;;;8.50;;
43606;SDS011;29197;44.788;10.366;2022-07-24T07:43:45;8.73;;;6.55;;
43606;SDS011;29197;44.788;10.366;2022-07-24T07:46:35;10.43;;;6.13;;
43606;SDS011;29197;44.788;10.366;2022-07-24T07:49:26;8.82;;;5.70;;
43606;SDS011;29197;44.788;10.366;2022-07-24T07:52:17;7.50;;;6.07;;
43606;SDS011;29197;44.788;10.366;2022-07-24T07:55:07;9.35;;;7.22;;
43606;SDS011;29197;44.788;10.366;2022-07-24T07:57:56;7.35;;;6.25;;
43606;SDS011;29197;44.788;10.366;2022-07-24T08:00:53;7.18;;;6.00;;
43606;SDS011;29197;44.788;10.366;2022-07-24T08:03:43;9.50;;;6.38;;
43606;SDS011;29197;44.788;10.366;2022-07-24T08:06:32;7.57;;;6.78;;
43606;SDS011;29197;44.788;10.366;2022-07-24T08:09:23;8.13;;;5.85;;
43606;SDS011;29197;44.788;10.366;2022-07-24T08:12:15;6.10;;;5.43;;
43606;SDS011;29197;44.788;10.366;2022-07-24T08:15:05;7.75;;;6.13;;
43606;SDS011;29197;44.788;10.366;2022-07-24T08:17:56;11.60;;;8.70;;
43606;SDS011;29197;44.788;10.366;2022-07-24T08:20:46;11.32;;;9.13;;
43606;SDS011;29197;44.788;10.366;2022-07-24T08:23:36;8.43;;;6.60;;
43606;SDS011;29197;44.788;10.366;2022-07-24T08:26:27;6.72;;;6.03;;
43606;SDS011;29197;44.788;10.366;2022-07-24T08:29:19;8.85;;;5.85;;
43606;SDS011;29197;44.788;10.366;2022-07-24T08:32:08;11.10;;;6.57;;
43606;SDS011;29197;44.788;10.366;2022-07-24T08:34:59;6.97;;;5.38;;
43606;SDS011;29197;44.788;10.366;2022-07-24T08:37:49;9.30;;;6.20;;
43606;SDS011;29197;44.788;10.366;2022-07-24T08:40:38;7.68;;;6.05;;
43606;SDS011;29197;44.788;10.366;2022-07-24T08:43:29;5.85;;;5.25;;
43606;SDS011;29197;44.788;10.366;2022-07-24T08:46:18;9.52;;;5.55;;
43606;SDS011;29197;44.788;10.366;2022-07-24T08:49:09;6.72;;;5.32;;
43606;SDS011;29197;44.788;10.366;2022-07-24T08:52:00;9.32;;;7.43;;
43606;SDS011;29197;44.788;10.366;2022-07-24T08:54:55;7.05;;;5.80;;
43606;SDS011;29197;44.788;10.366;2022-07-24T08:57:44;6.28;;;5.65;;
43606;SDS011;29197;44.788;10.366;2022-07-24T09:00:35;9.15;;;5.90;;
43606;SDS011;29197;44.788;10.366;2022-07-24T09:03:24;6.25;;;5.65;;
43606;SDS011;29197;44.788;10.366;2022-07-24T09:06:14;10.00;;;7.57;;
43606;SDS011;29197;44.788;10.366;2022-07-24T09:09:04;12.88;;;8.13;;
43606;SDS011;29197;44.788;10.366;2022-07-24T09:12:02;10.23;;;7.65;;
43606;SDS011;29197;44.788;10.366;2022-07-24T09:14:55;15.07;;;8.00;;
43606;SDS011;29197;44.788;10.366;2022-07-24T09:17:49;8.15;;;6.78;;
43606;SDS011;29197;44.788;10.366;2022-07-24T09:20:40;8.98;;;6.72;;
43606;SDS011;29197;44.788;10.366;2022-07-24T09:23:29;7.72;;;6.18;;
43606;SDS011;29197;44.788;10.366;2022-07-24T09:26:19;12.73;;;7.47;;
43606;SDS011;29197;44.788;10.366;2022-07-24T09:29:08;12.70;;;7.65;;
43606;SDS011;29197;44.788;10.366;2022-07-24T09:32:01;12.90;;;9.10;;
43606;SDS011;29197;44.788;10.366;2022-07-24T09:34:53;8.18;;;6.85;;
43606;SDS011;29197;44.788;10.366;2022-07-24T09:37:52;7.15;;;6.43;;
43606;SDS011;29197;44.788;10.366;2022-07-24T09:40:42;8.27;;;6.80;;
43606;SDS011;29197;44.788;10.366;2022-07-24T09:43:33;7.60;;;6.50;;
43606;SDS011;29197;44.788;10.366;2022-07-24T09:46:24;7.47;;;6.50;;
43606;SDS011;29197;44.788;10.366;2022-07-24T09:49:19;7.07;;;6.25;;
43606;SDS011;29197;44.788;10.366;2022-07-24T09:52:14;10.23;;;8.30;;
43606;SDS011;29197;44.788;10.366;2022-07-24T09:55:21;7.28;;;6.57;;
43606;SDS011;29197;44.788;10.366;2022-07-24T09:58:16;8.15;;;7.05;;
43606;SDS011;29197;44.788;10.366;2022-07-24T10:01:06;7.57;;;6.57;;
43606;SDS011;29197;44.788;10.366;2022-07-24T10:03:58;8.10;;;7.28;;
43606;SDS011;29197;44.788;10.366;2022-07-24T10:06:48;7.90;;;6.85;;
43606;SDS011;29197;44.788;10.366;2022-07-24T10:09:41;8.13;;;6.93;;
43606;SDS011;29197;44.788;10.366;2022-07-24T10:12:32;8.45;;;6.65;;
43606;SDS011;29197;44.788;10.366;2022-07-24T10:15:21;8.00;;;6.57;;
43606;SDS011;29197;44.788;10.366;2022-07-24T10:18:14;9.93;;;6.82;;
43606;SDS011;29197;44.788;10.366;2022-07-24T10:21:05;7.20;;;6.38;;
43606;SDS011;29197;44.788;10.366;2022-07-24T10:24:11;7.63;;;6.25;;
43606;SDS011;29197;44.788;10.366;2022-07-24T10:27:19;6.78;;;6.07;;
43606;SDS011;29197;44.788;10.366;2022-07-24T10:30:13;8.10;;;6.30;;
43606;SDS011;29197;44.788;10.366;2022-07-24T10:33:02;9.68;;;6.32;;
43606;SDS011;29197;44.788;10.366;2022-07-24T10:35:52;7.50;;;6.75;;
43606;SDS011;29197;44.788;10.366;2022-07-24T10:38:45;8.15;;;6.07;;
43606;SDS011;29197;44.788;10.366;2022-07-24T10:41:43;6.38;;;5.78;;
43606;SDS011;29197;44.788;10.366;2022-07-24T10:51:12;7.72;;;6.25;;
43606;SDS011;29197;44.788;10.366;2022-07-24T10:54:02;13.95;;;6.80;;
43606;SDS011;29197;44.788;10.366;2022-07-24T10:57:05;9.80;;;7.45;;
43606;SDS011;29197;44.788;10.366;2022-07-24T10:59:54;10.07;;;6.90;;
43606;SDS011;29197;44.788;10.366;2022-07-24T11:02:47;11.98;;;7.22;;
43606;SDS011;29197;44.788;10.366;2022-07-24T11:05:52;8.13;;;6.28;;
43606;SDS011;29197;44.788;10.366;2022-07-24T11:08:50;10.63;;;6.57;;
43606;SDS011;29197;44.788;10.366;2022-07-24T11:11:40;7.00;;;6.00;;
43606;SDS011;29197;44.788;10.366;2022-07-24T11:17:36;9.48;;;6.35;;
43606;SDS011;29197;44.788;10.366;2022-07-24T11:20:32;7.97;;;6.88;;
43606;SDS011;29197;44.788;10.366;2022-07-24T11:23:24;8.60;;;6.32;;
43606;SDS011;29197;44.788;10.366;2022-07-24T11:29:23;9.48;;;5.57;;
43606;SDS011;29197;44.788;10.366;2022-07-24T11:32:14;10.45;;;6.45;;
43606;SDS011;29197;44.788;10.366;2022-07-24T11:35:06;9.32;;;5.97;;
43606;SDS011;29197;44.788;10.366;2022-07-24T11:37:57;7.72;;;5.35;;
43606;SDS011;29197;44.788;10.366;2022-07-24T11:40:48;8.57;;;6.57;;
43606;SDS011;29197;44.788;10.366;2022-07-24T11:43:49;10.98;;;6.03;;
43606;SDS011;29197;44.788;10.366;2022-07-24T11:46:39;9.15;;;6.32;;
43606;SDS011;29197;44.788;10.366;2022-07-24T11:49:29;8.93;;;5.53;;
43606;SDS011;29197;44.788;10.366;2022-07-24T11:52:21;7.25;;;5.00;;
43606;SDS011;29197;44.788;10.366;2022-07-24T11:55:13;6.85;;;6.05;;
43606;SDS011;29197;44.788;10.366;2022-07-24T11:58:04;5.53;;;4.93;;
43606;SDS011;29197;44.788;10.366;2022-07-24T12:01:20;6.68;;;5.78;;
43606;SDS011;29197;44.788;10.366;2022-07-24T12:04:09;9.88;;;5.80;;
43606;SDS011;29197;44.788;10.366;2022-07-24T12:06:59;7.45;;;5.53;;
43606;SDS011;29197;44.788;10.366;2022-07-24T12:09:50;7.55;;;5.50;;
43606;SDS011;29197;44.788;10.366;2022-07-24T12:12:41;8.05;;;5.63;;
43606;SDS011;29197;44.788;10.366;2022-07-24T12:15:32;8.95;;;5.75;;
43606;SDS011;29197;44.788;10.366;2022-07-24T12:18:27;7.07;;;6.38;;
43606;SDS011;29197;44.788;10.366;2022-07-24T12:21:21;9.20;;;6.68;;
43606;SDS011;29197;44.788;10.366;2022-07-24T12:24:11;7.07;;;5.32;;
43606;SDS011;29197;44.788;10.366;2022-07-24T12:27:00;6.15;;;5.47;;
43606;SDS011;29197;44.788;10.366;2022-07-24T12:29:51;8.13;;;5.28;;
43606;SDS011;29197;44.788;10.366;2022-07-24T12:32:51;8.02;;;5.50;;
43606;SDS011;29197;44.788;10.366;2022-07-24T12:35:55;7.50;;;5.78;;
43606;SDS011;29197;44.788;10.366;2022-07-24T12:38:50;7.63;;;5.13;;
43606;SDS011;29197;44.788;10.366;2022-07-24T12:41:42;6.70;;;5.63;;
43606;SDS011;29197;44.788;10.366;2022-07-24T12:44:39;8.02;;;5.50;;
43606;SDS011;29197;44.788;10.366;2022-07-24T12:47:31;8.38;;;5.15;;
43606;SDS011;29197;44.788;10.366;2022-07-24T12:50:20;7.68;;;5.43;;
43606;SDS011;29197;44.788;10.366;2022-07-24T12:53:30;8.73;;;5.47;;
43606;SDS011;29197;44.788;10.366;2022-07-24T12:56:22;7.28;;;5.30;;
43606;SDS011;29197;44.788;10.366;2022-07-24T12:59:20;6.18;;;5.30;;
43606;SDS011;29197;44.788;10.366;2022-07-24T13:02:12;7.72;;;5.05;;
43606;SDS011;29197;44.788;10.366;2022-07-24T13:05:06;6.85;;;5.28;;
43606;SDS011;29197;44.788;10.366;2022-07-24T13:07:56;6.63;;;5.70;;
43606;SDS011;29197;44.788;10.366;2022-07-24T13:10:46;6.07;;;5.25;;
43606;SDS011;29197;44.788;10.366;2022-07-24T13:13:35;8.02;;;5.85;;
43606;SDS011;29197;44.788;10.366;2022-07-24T13:16:26;7.85;;;5.68;;
43606;SDS011;29197;44.788;10.366;2022-07-24T13:19:17;5.80;;;4.90;;
43606;SDS011;29197;44.788;10.366;2022-07-24T13:22:09;6.82;;;4.60;;
43606;SDS011;29197;44.788;10.366;2022-07-24T13:24:58;5.50;;;4.45;;
43606;SDS011;29197;44.788;10.366;2022-07-24T13:27:48;5.80;;;3.97;;
43606;SDS011;29197;44.788;10.366;2022-07-24T13:30:56;6.85;;;4.88;;
43606;SDS011;29197;44.788;10.366;2022-07-24T13:33:46;5.30;;;4.65;;
43606;SDS011;29197;44.788;10.366;2022-07-24T13:36:36;8.52;;;5.28;;
43606;SDS011;29197;44.788;10.366;2022-07-24T13:39:29;5.10;;;4.60;;
43606;SDS011;29197;44.788;10.366;2022-07-24T13:42:18;5.68;;;4.50;;
43606;SDS011;29197;44.788;10.366;2022-07-24T13:45:08;5.38;;;4.53;;
43606;SDS011;29197;44.788;10.366;2022-07-24T13:47:58;7.70;;;5.20;;
43606;SDS011;29197;44.788;10.366;2022-07-24T13:50:47;6.53;;;4.95;;
43606;SDS011;29197;44.788;10.366;2022-07-24T13:53:36;6.28;;;4.00;;
43606;SDS011;29197;44.788;10.366;2022-07-24T13:56:27;4.57;;;4.18;;
43606;SDS011;29197;44.788;10.366;2022-07-24T13:59:16;6.53;;;4.50;;
43606;SDS011;29197;44.788;10.366;2022-07-24T14:02:06;4.65;;;4.15;;
43606;SDS011;29197;44.788;10.366;2022-07-24T14:04:55;5.60;;;4.63;;
43606;SDS011;29197;44.788;10.366;2022-07-24T14:07:44;7.78;;;4.90;;
43606;SDS011;29197;44.788;10.366;2022-07-24T14:10:34;5.32;;;4.63;;
43606;SDS011;29197;44.788;10.366;2022-07-24T14:13:25;5.82;;;5.07;;
43606;SDS011;29197;44.788;10.366;2022-07-24T14:16:14;7.15;;;4.68;;
43606;SDS011;29197;44.788;10.366;2022-07-24T14:19:04;5.43;;;5.00;;
43606;SDS011;29197;44.788;10.366;2022-07-24T14:21:53;5.07;;;4.45;;
43606;SDS011;29197;44.788;10.366;2022-07-24T14:24:44;4.88;;;4.20;;
43606;SDS011;29197;44.788;10.366;2022-07-24T14:27:33;6.18;;;4.55;;
43606;SDS011;29197;44.788;10.366;2022-07-24T14:30:25;4.90;;;4.50;;
43606;SDS011;29197;44.788;10.366;2022-07-24T14:33:14;5.03;;;4.45;;
43606;SDS011;29197;44.788;10.366;2022-07-24T14:36:04;5.57;;;4.07;;
43606;SDS011;29197;44.788;10.366;2022-07-24T14:38:54;8.82;;;4.75;;
43606;SDS011;29197;44.788;10.366;2022-07-24T14:41:44;6.70;;;4.45;;
43606;SDS011;29197;44.788;10.366;2022-07-24T14:44:34;4.35;;;3.92;;
43606;SDS011;29197;44.788;10.366;2022-07-24T14:47:25;5.55;;;4.30;;
43606;SDS011;29197;44.788;10.366;2022-07-24T14:50:15;4.88;;;4.20;;
43606;SDS011;29197;44.788;10.366;2022-07-24T14:53:10;4.63;;;4.22;;
43606;SDS011;29197;44.788;10.366;2022-07-24T14:56:00;6.72;;;4.50;;
43606;SDS011;29197;44.788;10.366;2022-07-24T14:58:49;5.47;;;4.30;;
43606;SDS011;29197;44.788;10.366;2022-07-24T15:01:38;5.60;;;4.40;;
43606;SDS011;29197;44.788;10.366;2022-07-24T15:04:29;5.93;;;4.60;;
43606;SDS011;29197;44.788;10.366;2022-07-24T15:07:19;8.13;;;5.22;;
43606;SDS011;29197;44.788;10.366;2022-07-24T15:10:15;5.40;;;4.30;;
43606;SDS011;29197;44.788;10.366;2022-07-24T15:13:05;6.68;;;5.10;;
43606;SDS011;29197;44.788;10.366;2022-07-24T15:15:53;4.78;;;4.30;;
43606;SDS011;29197;44.788;10.366;2022-07-24T15:18:44;5.03;;;4.53;;
43606;SDS011;29197;44.788;10.366;2022-07-24T15:21:35;5.50;;;4.63;;
43606;SDS011;29197;44.788;10.366;2022-07-24T15:24:24;5.20;;;4.65;;
43606;SDS011;29197;44.788;10.366;2022-07-24T15:27:14;7.15;;;4.68;;
43606;SDS011;29197;44.788;10.366;2022-07-24T15:30:04;5.65;;;4.72;;
43606;SDS011;29197;44.788;10.366;2022-07-24T15:33:01;5.85;;;4.78;;
43606;SDS011;29197;44.788;10.366;2022-07-24T15:35:52;5.70;;;4.53;;
43606;SDS011;29197;44.788;10.366;2022-07-24T15:38:43;6.22;;;4.63;;
43606;SDS011;29197;44.788;10.366;2022-07-24T15:41:33;6.75;;;4.60;;
43606;SDS011;29197;44.788;10.366;2022-07-24T15:44:22;6.10;;;4.75;;
43606;SDS011;29197;44.788;10.366;2022-07-24T15:47:11;4.75;;;4.28;;
43606;SDS011;29197;44.788;10.366;2022-07-24T15:50:00;5.05;;;4.20;;
43606;SDS011;29197;44.788;10.366;2022-07-24T15:52:50;4.70;;;4.15;;
43606;SDS011;29197;44.788;10.366;2022-07-24T15:55:41;7.57;;;4.78;;
43606;SDS011;29197;44.788;10.366;2022-07-24T15:58:30;5.55;;;4.32;;
43606;SDS011;29197;44.788;10.366;2022-07-24T16:01:20;5.90;;;4.90;;
43606;SDS011;29197;44.788;10.366;2022-07-24T16:04:29;5.18;;;4.68;;
43606;SDS011;29197;44.788;10.366;2022-07-24T16:07:18;5.05;;;4.47;;
43606;SDS011;29197;44.788;10.366;2022-07-24T16:10:08;4.95;;;4.53;;
43606;SDS011;29197;44.788;10.366;2022-07-24T16:12:59;5.40;;;4.32;;
43606;SDS011;29197;44.788;10.366;2022-07-24T16:15:48;5.28;;;4.35;;
43606;SDS011;29197;44.788;10.366;2022-07-24T16:18:38;5.90;;;4.78;;
43606;SDS011;29197;44.788;10.366;2022-07-24T16:21:27;7.63;;;5.05;;
43606;SDS011;29197;44.788;10.366;2022-07-24T16:24:18;5.30;;;4.75;;
43606;SDS011;29197;44.788;10.366;2022-07-24T16:27:07;8.10;;;5.20;;
43606;SDS011;29197;44.788;10.366;2022-07-24T16:29:58;5.85;;;4.88;;
43606;SDS011;29197;44.788;10.366;2022-07-24T16:32:48;5.38;;;4.88;;
43606;SDS011;29197;44.788;10.366;2022-07-24T16:35:37;5.70;;;4.95;;
43606;SDS011;29197;44.788;10.366;2022-07-24T16:38:26;7.10;;;4.78;;
43606;SDS011;29197;44.788;10.366;2022-07-24T16:41:15;8.82;;;5.00;;
43606;SDS011;29197;44.788;10.366;2022-07-24T16:44:05;9.35;;;5.30;;
43606;SDS011;29197;44.788;10.366;2022-07-24T16:46:57;4.82;;;4.40;;
43606;SDS011;29197;44.788;10.366;2022-07-24T16:49:46;5.97;;;4.85;;
43606;SDS011;29197;44.788;10.366;2022-07-24T16:52:36;8.30;;;5.15;;
43606;SDS011;29197;44.788;10.366;2022-07-24T16:55:39;5.35;;;4.85;;
43606;SDS011;29197;44.788;10.366;2022-07-24T16:58:29;5.30;;;4.50;;
43606;SDS011;29197;44.788;10.366;2022-07-24T17:01:19;5.93;;;5.10;;
43606;SDS011;29197;44.788;10.366;2022-07-24T17:04:09;9.88;;;5.72;;
43606;SDS011;29197;44.788;10.366;2022-07-24T17:06:58;6.07;;;4.90;;